Terminal Aerodrome Forecast
Issued by NWS Cleveland, OH

Home | Current Version | Previous Version | Text Only | Print | Product List | Glossary Off
Versions: 1 2 3 4 5 6 7 8 9 10 11 12 13 14 15 16 17

933
FTUS41 KCLE 051136
TAFERI
TAF
KERI 051136Z 0512/0612 30010KT P6SM SCT040
     FM051700 27008KT P6SM BKN060
     FM052100 26009KT P6SM BKN120
     FM060000 20004KT P6SM OVC040
     FM060600 21010G15KT P6SM OVC040=

USA.gov is the U.S. government's official web portal to all federal, state and local government web resources and services.